This is the latest recevied weather packets stored in our database for station/object N0QWM. If no packets are shown the sender has not sent any weather packets the latest 1 day(s).
| Time | Temp. | Humidity | Pressure | Rain* | Wind** | Luminosity | Snow |
|---|---|---|---|---|---|---|---|
| 1778005897 | 25° C | 58% | 1019.2 hPa | 0 mm | 1.34 m/s, 181° | 763 W/m² | - |
| 1778005593 | 24.44° C | 59% | 1019.1 hPa | 0 mm | 1.79 m/s, 293° | 753 W/m² | - |
| 1778005290 | 24.44° C | 59% | 1019.1 hPa | 0 mm | 1.34 m/s, 293° | 670 W/m² | - |
| 1778004986 | 23.89° C | 60% | 1019.2 hPa | 0 mm | 1.34 m/s, 263° | 682 W/m² | - |
| 1778004684 | 23.89° C | 60% | 1019.4 hPa | 0 mm | 1.34 m/s, 286° | 737 W/m² | - |
| 1778004380 | 23.33° C | 62% | 1019.3 hPa | 0 mm | 0.89 m/s, 262° | 754 W/m² | - |
| 1778004078 | 23.89° C | 61% | 1019.5 hPa | 0 mm | 0.89 m/s, 294° | 255 W/m² | - |
| 1778003773 | 23.33° C | 62% | 1019.4 hPa | 0 mm | 0.89 m/s, 288° | 403 W/m² | - |
| 1778003470 | 23.89° C | 61% | 1019.5 hPa | 0 mm | 0.45 m/s, 243° | 431 W/m² | - |
| 1778003167 | 23.33° C | 62% | 1019.8 hPa | 0 mm | 0.45 m/s, 27° | 275 W/m² | - |
| 1778002863 | 23.33° C | 61% | 1020 hPa | 0 mm | 0.89 m/s, 25° | 586 W/m² | - |
| 1778002559 | 23.89° C | 61% | 1019.8 hPa | 0 mm | 0.89 m/s, 318° | 308 W/m² | - |
| 1778002256 | 23.33° C | 61% | 1020 hPa | 0 mm | 0.45 m/s, 277° | 611 W/m² | - |
| 1778001954 | 23.33° C | 62% | 1020 hPa | 0 mm | 0.45 m/s, 19° | 572 W/m² | - |
| 1778001651 | 23.33° C | 62% | 1020.2 hPa | 0 mm | 0.45 m/s, 40° | 311 W/m² | - |
| 1778001345 | 23.89° C | 60% | 1020 hPa | 0 mm | 1.34 m/s, 337° | 653 W/m² | - |
| 1778001043 | 23.33° C | 61% | 1020 hPa | 0 mm | 0.89 m/s, 287° | 737 W/m² | - |
| 1778000739 | 22.78° C | 62% | 1020.1 hPa | 0 mm | 0 m/s | 750 W/m² | - |
| 1778000436 | 22.78° C | 63% | 1020.3 hPa | 0 mm | 0.45 m/s, 53° | 763 W/m² | - |
| 1778000131 | 22.78° C | 63% | 1020.4 hPa | 0 mm | 0.45 m/s, 353° | 399 W/m² | - |
| 1777999827 | 22.78° C | 63% | 1020.1 hPa | 0 mm | 2.24 m/s, 30° | 707 W/m² | - |
| 1777999523 | 21.67° C | 66% | 1020.2 hPa | 0 mm | 0.89 m/s, 306° | 285 W/m² | - |
| 1777999221 | 21.67° C | 67% | 1020.1 hPa | 0 mm | 0.89 m/s, 320° | 213 W/m² | - |
| 1777998920 | 22.22° C | 67% | 1020.4 hPa | 0 mm | 0 m/s | 251 W/m² | - |
| 1777998616 | 21.67° C | 66% | 1020.4 hPa | 0 mm | 0.45 m/s, 344° | 714 W/m² | - |
* Rain latest hour (hover to see other rain measurements)
** Current wind speed in m/s (hover to see current wind gust speed)